Terminal Aerodrome Forecast
Issued by NWS

Home | Current Version | Previous Version | Text Only | Print | Product List | Glossary On
Versions: 1 2 3 4 5 6 7 8 9 10 11 12 13 14 15 16 17 18 19
587
FTUS41 KBTV 131453 AAA
TAFMSS
TAF AMD
KMSS 131453Z 1315/1412 27010G20KT P6SM BKN020
     FM132100 28015KT P6SM BKN035
     FM140700 30009KT P6SM SCT200=

USA.gov is the U.S. government's official web portal to all federal, state and local government web resources and services.